sensor_id;sensor_type;location;lat;lon;timestamp;P1;durP1;ratioP1;P2;durP2;ratioP2
23838;SDS011;12100;44.384;20.272;2022-11-28T00:01:38;76.10;;;44.50;;
23838;SDS011;12100;44.384;20.272;2022-11-28T00:04:07;89.55;;;45.78;;
23838;SDS011;12100;44.384;20.272;2022-11-28T00:06:35;70.65;;;38.85;;
23838;SDS011;12100;44.384;20.272;2022-11-28T00:09:05;70.20;;;36.87;;
23838;SDS011;12100;44.384;20.272;2022-11-28T00:11:32;71.25;;;36.35;;
23838;SDS011;12100;44.384;20.272;2022-11-28T00:13:58;69.63;;;38.08;;
23838;SDS011;12100;44.384;20.272;2022-11-28T00:16:24;74.78;;;38.42;;
23838;SDS011;12100;44.384;20.272;2022-11-28T00:18:53;91.07;;;47.75;;
23838;SDS011;12100;44.384;20.272;2022-11-28T00:21:19;79.18;;;42.55;;
23838;SDS011;12100;44.384;20.272;2022-11-28T00:23:45;77.28;;;40.25;;
23838;SDS011;12100;44.384;20.272;2022-11-28T00:26:14;70.80;;;39.03;;
23838;SDS011;12100;44.384;20.272;2022-11-28T00:28:47;73.07;;;37.13;;
23838;SDS011;12100;44.384;20.272;2022-11-28T00:31:17;66.97;;;36.33;;
23838;SDS011;12100;44.384;20.272;2022-11-28T00:33:45;66.28;;;35.17;;
23838;SDS011;12100;44.384;20.272;2022-11-28T00:36:11;70.53;;;37.13;;
23838;SDS011;12100;44.384;20.272;2022-11-28T00:38:37;69.50;;;35.67;;
23838;SDS011;12100;44.384;20.272;2022-11-28T00:41:04;89.82;;;42.83;;
23838;SDS011;12100;44.384;20.272;2022-11-28T00:43:33;84.07;;;44.35;;
23838;SDS011;12100;44.384;20.272;2022-11-28T00:45:59;67.00;;;41.53;;
23838;SDS011;12100;44.384;20.272;2022-11-28T00:48:26;77.32;;;41.40;;
23838;SDS011;12100;44.384;20.272;2022-11-28T00:50:52;85.65;;;47.53;;
23838;SDS011;12100;44.384;20.272;2022-11-28T00:53:19;80.22;;;44.90;;
23838;SDS011;12100;44.384;20.272;2022-11-28T00:55:45;74.47;;;42.47;;
23838;SDS011;12100;44.384;20.272;2022-11-28T00:58:11;85.93;;;45.63;;
23838;SDS011;12100;44.384;20.272;2022-11-28T01:00:37;77.85;;;42.30;;
23838;SDS011;12100;44.384;20.272;2022-11-28T01:03:03;78.72;;;41.50;;
23838;SDS011;12100;44.384;20.272;2022-11-28T01:05:29;86.25;;;49.83;;
23838;SDS011;12100;44.384;20.272;2022-11-28T01:07:55;85.57;;;51.53;;
23838;SDS011;12100;44.384;20.272;2022-11-28T01:10:21;96.63;;;46.63;;
23838;SDS011;12100;44.384;20.272;2022-11-28T01:12:47;84.75;;;42.30;;
23838;SDS011;12100;44.384;20.272;2022-11-28T01:15:12;84.50;;;41.70;;
23838;SDS011;12100;44.384;20.272;2022-11-28T01:17:38;77.05;;;40.72;;
23838;SDS011;12100;44.384;20.272;2022-11-28T01:20:05;72.38;;;39.83;;
23838;SDS011;12100;44.384;20.272;2022-11-28T01:22:33;73.68;;;42.58;;
23838;SDS011;12100;44.384;20.272;2022-11-28T01:24:58;75.15;;;43.17;;
23838;SDS011;12100;44.384;20.272;2022-11-28T01:27:24;87.40;;;45.25;;
23838;SDS011;12100;44.384;20.272;2022-11-28T01:29:50;88.95;;;47.83;;
23838;SDS011;12100;44.384;20.272;2022-11-28T01:32:16;90.53;;;47.38;;
23838;SDS011;12100;44.384;20.272;2022-11-28T01:34:42;82.90;;;44.40;;
23838;SDS011;12100;44.384;20.272;2022-11-28T01:37:08;92.32;;;50.90;;
23838;SDS011;12100;44.384;20.272;2022-11-28T01:39:34;87.45;;;47.83;;
23838;SDS011;12100;44.384;20.272;2022-11-28T01:42:01;91.70;;;52.28;;
23838;SDS011;12100;44.384;20.272;2022-11-28T01:46:56;103.60;;;53.70;;
23838;SDS011;12100;44.384;20.272;2022-11-28T01:49:24;100.20;;;51.50;;
23838;SDS011;12100;44.384;20.272;2022-11-28T01:51:58;87.43;;;43.90;;
23838;SDS011;12100;44.384;20.272;2022-11-28T01:54:28;103.55;;;50.72;;
23838;SDS011;12100;44.384;20.272;2022-11-28T01:56:58;89.00;;;46.38;;
23838;SDS011;12100;44.384;20.272;2022-11-28T01:59:27;91.82;;;47.60;;
23838;SDS011;12100;44.384;20.272;2022-11-28T02:01:57;90.97;;;46.85;;
23838;SDS011;12100;44.384;20.272;2022-11-28T02:04:24;89.78;;;48.85;;
23838;SDS011;12100;44.384;20.272;2022-11-28T02:06:52;104.28;;;55.70;;
23838;SDS011;12100;44.384;20.272;2022-11-28T02:09:18;99.25;;;53.53;;
23838;SDS011;12100;44.384;20.272;2022-11-28T02:14:51;109.70;;;57.50;;
23838;SDS011;12100;44.384;20.272;2022-11-28T02:22:49;95.18;;;47.83;;
23838;SDS011;12100;44.384;20.272;2022-11-28T02:26:01;93.60;;;44.17;;
23838;SDS011;12100;44.384;20.272;2022-11-28T02:34:24;91.82;;;45.45;;
23838;SDS011;12100;44.384;20.272;2022-11-28T02:37:02;89.00;;;48.05;;
23838;SDS011;12100;44.384;20.272;2022-11-28T02:39:54;88.50;;;46.40;;
23838;SDS011;12100;44.384;20.272;2022-11-28T02:48:08;102.97;;;50.08;;
23838;SDS011;12100;44.384;20.272;2022-11-28T02:51:17;105.88;;;53.42;;
23838;SDS011;12100;44.384;20.272;2022-11-28T02:53:40;111.15;;;55.60;;
23838;SDS011;12100;44.384;20.272;2022-11-28T02:56:10;94.50;;;50.38;;
23838;SDS011;12100;44.384;20.272;2022-11-28T02:58:36;96.78;;;52.28;;
23838;SDS011;12100;44.384;20.272;2022-11-28T03:01:03;92.35;;;47.72;;
23838;SDS011;12100;44.384;20.272;2022-11-28T03:03:46;101.68;;;49.97;;
23838;SDS011;12100;44.384;20.272;2022-11-28T03:06:52;122.55;;;57.35;;
23838;SDS011;12100;44.384;20.272;2022-11-28T03:12:36;109.82;;;53.45;;
23838;SDS011;12100;44.384;20.272;2022-11-28T03:15:13;104.50;;;53.25;;
23838;SDS011;12100;44.384;20.272;2022-11-28T03:17:57;108.05;;;54.42;;
23838;SDS011;12100;44.384;20.272;2022-11-28T03:23:30;112.47;;;51.80;;
23838;SDS011;12100;44.384;20.272;2022-11-28T03:26:07;97.00;;;48.38;;
23838;SDS011;12100;44.384;20.272;2022-11-28T03:29:00;96.05;;;47.30;;
23838;SDS011;12100;44.384;20.272;2022-11-28T03:31:38;94.53;;;48.03;;
23838;SDS011;12100;44.384;20.272;2022-11-28T03:34:11;99.57;;;51.53;;
23838;SDS011;12100;44.384;20.272;2022-11-28T03:36:42;105.47;;;52.83;;
23838;SDS011;12100;44.384;20.272;2022-11-28T03:39:12;109.63;;;62.42;;
23838;SDS011;12100;44.384;20.272;2022-11-28T03:41:42;121.68;;;59.28;;
23838;SDS011;12100;44.384;20.272;2022-11-28T03:44:19;106.90;;;56.38;;
23838;SDS011;12100;44.384;20.272;2022-11-28T03:46:50;100.35;;;52.45;;
23838;SDS011;12100;44.384;20.272;2022-11-28T03:49:23;104.78;;;54.00;;
23838;SDS011;12100;44.384;20.272;2022-11-28T03:52:42;115.53;;;58.15;;
23838;SDS011;12100;44.384;20.272;2022-11-28T03:54:58;118.80;;;57.38;;
23838;SDS011;12100;44.384;20.272;2022-11-28T04:00:12;124.00;;;63.38;;
23838;SDS011;12100;44.384;20.272;2022-11-28T04:08:11;137.88;;;64.72;;
23838;SDS011;12100;44.384;20.272;2022-11-28T04:10:44;130.40;;;64.82;;
23838;SDS011;12100;44.384;20.272;2022-11-28T04:13:28;131.95;;;65.88;;
23838;SDS011;12100;44.384;20.272;2022-11-28T04:24:04;132.27;;;65.38;;
23838;SDS011;12100;44.384;20.272;2022-11-28T04:26:35;134.90;;;64.75;;
23838;SDS011;12100;44.384;20.272;2022-11-28T04:29:08;149.10;;;71.03;;
23838;SDS011;12100;44.384;20.272;2022-11-28T04:31:38;131.48;;;66.15;;
23838;SDS011;12100;44.384;20.272;2022-11-28T04:34:07;120.55;;;65.72;;
23838;SDS011;12100;44.384;20.272;2022-11-28T04:36:36;118.22;;;59.20;;
23838;SDS011;12100;44.384;20.272;2022-11-28T04:39:05;131.05;;;61.78;;
23838;SDS011;12100;44.384;20.272;2022-11-28T04:41:40;132.75;;;62.88;;
23838;SDS011;12100;44.384;20.272;2022-11-28T04:47:08;120.25;;;60.67;;
23838;SDS011;12100;44.384;20.272;2022-11-28T04:49:35;122.20;;;60.55;;
23838;SDS011;12100;44.384;20.272;2022-11-28T04:59:56;111.20;;;55.88;;
23838;SDS011;12100;44.384;20.272;2022-11-28T05:02:25;121.70;;;64.78;;
23838;SDS011;12100;44.384;20.272;2022-11-28T05:04:52;101.65;;;55.85;;
23838;SDS011;12100;44.384;20.272;2022-11-28T05:07:20;93.88;;;50.35;;
23838;SDS011;12100;44.384;20.272;2022-11-28T05:09:46;73.53;;;39.42;;
23838;SDS011;12100;44.384;20.272;2022-11-28T05:12:12;59.80;;;34.58;;
23838;SDS011;12100;44.384;20.272;2022-11-28T05:14:38;71.22;;;40.90;;
23838;SDS011;12100;44.384;20.272;2022-11-28T05:17:05;54.00;;;30.58;;
23838;SDS011;12100;44.384;20.272;2022-11-28T05:19:31;55.97;;;32.42;;
23838;SDS011;12100;44.384;20.272;2022-11-28T05:21:57;67.18;;;40.60;;
23838;SDS011;12100;44.384;20.272;2022-11-28T05:24:22;51.80;;;29.63;;
23838;SDS011;12100;44.384;20.272;2022-11-28T05:26:49;61.10;;;32.60;;
23838;SDS011;12100;44.384;20.272;2022-11-28T05:29:15;51.55;;;29.38;;
23838;SDS011;12100;44.384;20.272;2022-11-28T05:31:41;65.65;;;37.80;;
23838;SDS011;12100;44.384;20.272;2022-11-28T05:34:07;120.05;;;63.30;;
23838;SDS011;12100;44.384;20.272;2022-11-28T05:36:33;80.85;;;49.13;;
23838;SDS011;12100;44.384;20.272;2022-11-28T05:38:59;86.63;;;53.28;;
23838;SDS011;12100;44.384;20.272;2022-11-28T05:41:29;87.18;;;55.92;;
23838;SDS011;12100;44.384;20.272;2022-11-28T05:43:56;73.32;;;44.60;;
23838;SDS011;12100;44.384;20.272;2022-11-28T05:46:23;73.20;;;43.13;;
23838;SDS011;12100;44.384;20.272;2022-11-28T05:48:49;43.50;;;26.90;;
23838;SDS011;12100;44.384;20.272;2022-11-28T05:51:15;42.15;;;26.20;;
23838;SDS011;12100;44.384;20.272;2022-11-28T05:53:41;17.67;;;13.13;;
23838;SDS011;12100;44.384;20.272;2022-11-28T05:56:07;17.83;;;12.95;;
23838;SDS011;12100;44.384;20.272;2022-11-28T05:58:34;12.15;;;9.48;;
23838;SDS011;12100;44.384;20.272;2022-11-28T06:01:14;13.30;;;9.95;;
23838;SDS011;12100;44.384;20.272;2022-11-28T06:03:41;27.58;;;15.95;;
23838;SDS011;12100;44.384;20.272;2022-11-28T06:06:11;24.60;;;16.42;;
23838;SDS011;12100;44.384;20.272;2022-11-28T06:08:39;15.52;;;10.93;;
23838;SDS011;12100;44.384;20.272;2022-11-28T06:11:06;11.00;;;8.90;;
23838;SDS011;12100;44.384;20.272;2022-11-28T06:13:32;19.27;;;13.07;;
23838;SDS011;12100;44.384;20.272;2022-11-28T06:15:57;21.80;;;15.60;;
23838;SDS011;12100;44.384;20.272;2022-11-28T06:18:23;22.02;;;14.57;;
23838;SDS011;12100;44.384;20.272;2022-11-28T06:20:49;17.98;;;11.77;;
23838;SDS011;12100;44.384;20.272;2022-11-28T06:23:15;13.00;;;9.98;;
23838;SDS011;12100;44.384;20.272;2022-11-28T06:25:41;10.73;;;8.38;;
23838;SDS011;12100;44.384;20.272;2022-11-28T06:28:07;11.50;;;7.50;;
23838;SDS011;12100;44.384;20.272;2022-11-28T06:30:33;9.68;;;7.40;;
23838;SDS011;12100;44.384;20.272;2022-11-28T06:32:59;10.57;;;7.75;;
23838;SDS011;12100;44.384;20.272;2022-11-28T06:35:25;12.75;;;9.10;;
23838;SDS011;12100;44.384;20.272;2022-11-28T06:37:51;15.80;;;11.52;;
23838;SDS011;12100;44.384;20.272;2022-11-28T06:40:16;20.75;;;13.75;;
23838;SDS011;12100;44.384;20.272;2022-11-28T06:42:42;11.13;;;8.05;;
23838;SDS011;12100;44.384;20.272;2022-11-28T06:45:08;30.70;;;15.10;;
23838;SDS011;12100;44.384;20.272;2022-11-28T06:47:34;26.88;;;14.38;;
23838;SDS011;12100;44.384;20.272;2022-11-28T06:50:00;31.05;;;16.02;;
23838;SDS011;12100;44.384;20.272;2022-11-28T06:52:26;20.85;;;11.95;;
23838;SDS011;12100;44.384;20.272;2022-11-28T06:54:52;8.77;;;6.85;;
23838;SDS011;12100;44.384;20.272;2022-11-28T06:57:18;14.48;;;10.60;;
23838;SDS011;12100;44.384;20.272;2022-11-28T06:59:44;11.15;;;8.05;;
23838;SDS011;12100;44.384;20.272;2022-11-28T07:02:10;10.82;;;6.68;;
23838;SDS011;12100;44.384;20.272;2022-11-28T07:04:36;16.52;;;11.18;;
23838;SDS011;12100;44.384;20.272;2022-11-28T07:07:02;20.23;;;11.98;;
23838;SDS011;12100;44.384;20.272;2022-11-28T07:09:28;8.93;;;6.72;;
23838;SDS011;12100;44.384;20.272;2022-11-28T07:11:54;9.23;;;6.63;;
23838;SDS011;12100;44.384;20.272;2022-11-28T07:14:20;8.13;;;6.82;;
23838;SDS011;12100;44.384;20.272;2022-11-28T07:16:45;16.45;;;9.45;;
23838;SDS011;12100;44.384;20.272;2022-11-28T07:19:13;9.65;;;6.90;;
23838;SDS011;12100;44.384;20.272;2022-11-28T07:21:38;11.30;;;8.35;;
23838;SDS011;12100;44.384;20.272;2022-11-28T07:24:05;7.75;;;6.50;;
23838;SDS011;12100;44.384;20.272;2022-11-28T07:26:31;7.47;;;6.15;;
23838;SDS011;12100;44.384;20.272;2022-11-28T07:28:57;17.17;;;8.95;;
23838;SDS011;12100;44.384;20.272;2022-11-28T07:31:24;9.48;;;7.03;;
23838;SDS011;12100;44.384;20.272;2022-11-28T07:33:52;8.80;;;7.00;;
23838;SDS011;12100;44.384;20.272;2022-11-28T07:38:48;8.93;;;7.28;;
23838;SDS011;12100;44.384;20.272;2022-11-28T07:41:17;6.65;;;5.65;;
23838;SDS011;12100;44.384;20.272;2022-11-28T07:43:44;17.52;;;12.30;;
23838;SDS011;12100;44.384;20.272;2022-11-28T07:46:11;20.48;;;15.02;;
23838;SDS011;12100;44.384;20.272;2022-11-28T07:48:40;8.80;;;6.85;;
23838;SDS011;12100;44.384;20.272;2022-11-28T07:51:10;7.47;;;6.50;;
23838;SDS011;12100;44.384;20.272;2022-11-28T07:53:41;7.97;;;6.72;;
23838;SDS011;12100;44.384;20.272;2022-11-28T07:56:08;10.15;;;8.15;;
23838;SDS011;12100;44.384;20.272;2022-11-28T07:58:39;9.40;;;6.68;;
23838;SDS011;12100;44.384;20.272;2022-11-28T08:01:09;8.00;;;5.85;;
23838;SDS011;12100;44.384;20.272;2022-11-28T08:03:39;13.30;;;8.90;;
23838;SDS011;12100;44.384;20.272;2022-11-28T08:06:05;8.35;;;6.28;;
23838;SDS011;12100;44.384;20.272;2022-11-28T08:08:32;9.93;;;7.05;;
23838;SDS011;12100;44.384;20.272;2022-11-28T08:10:59;7.88;;;6.88;;
23838;SDS011;12100;44.384;20.272;2022-11-28T08:13:26;7.90;;;6.50;;
23838;SDS011;12100;44.384;20.272;2022-11-28T08:15:52;11.68;;;9.77;;
23838;SDS011;12100;44.384;20.272;2022-11-28T08:18:18;7.03;;;6.15;;
23838;SDS011;12100;44.384;20.272;2022-11-28T08:20:43;8.30;;;7.20;;
23838;SDS011;12100;44.384;20.272;2022-11-28T08:23:09;9.48;;;7.50;;
23838;SDS011;12100;44.384;20.272;2022-11-28T08:25:35;7.82;;;5.85;;
23838;SDS011;12100;44.384;20.272;2022-11-28T08:28:01;7.97;;;5.70;;
23838;SDS011;12100;44.384;20.272;2022-11-28T08:30:27;8.90;;;7.85;;
23838;SDS011;12100;44.384;20.272;2022-11-28T08:32:53;7.68;;;6.30;;
23838;SDS011;12100;44.384;20.272;2022-11-28T08:35:19;6.43;;;4.90;;
23838;SDS011;12100;44.384;20.272;2022-11-28T08:37:45;7.20;;;6.40;;
23838;SDS011;12100;44.384;20.272;2022-11-28T08:40:11;6.95;;;6.25;;
23838;SDS011;12100;44.384;20.272;2022-11-28T08:42:37;9.80;;;7.60;;
23838;SDS011;12100;44.384;20.272;2022-11-28T08:45:03;7.55;;;6.72;;
23838;SDS011;12100;44.384;20.272;2022-11-28T08:47:30;8.27;;;7.40;;
23838;SDS011;12100;44.384;20.272;2022-11-28T08:49:56;6.93;;;6.32;;
23838;SDS011;12100;44.384;20.272;2022-11-28T08:52:22;9.93;;;8.85;;
23838;SDS011;12100;44.384;20.272;2022-11-28T08:54:49;7.35;;;6.65;;
23838;SDS011;12100;44.384;20.272;2022-11-28T08:57:14;8.77;;;6.70;;
23838;SDS011;12100;44.384;20.272;2022-11-28T08:59:40;7.65;;;6.57;;
23838;SDS011;12100;44.384;20.272;2022-11-28T09:02:08;7.10;;;6.40;;
23838;SDS011;12100;44.384;20.272;2022-11-28T09:04:35;6.85;;;6.20;;
23838;SDS011;12100;44.384;20.272;2022-11-28T09:07:01;7.45;;;6.57;;
23838;SDS011;12100;44.384;20.272;2022-11-28T09:09:27;8.88;;;6.10;;
23838;SDS011;12100;44.384;20.272;2022-11-28T09:11:53;6.97;;;5.93;;
23838;SDS011;12100;44.384;20.272;2022-11-28T09:14:19;6.28;;;5.30;;
23838;SDS011;12100;44.384;20.272;2022-11-28T09:16:45;7.93;;;7.05;;
23838;SDS011;12100;44.384;20.272;2022-11-28T09:19:11;6.60;;;5.93;;
23838;SDS011;12100;44.384;20.272;2022-11-28T09:21:37;9.32;;;7.28;;
23838;SDS011;12100;44.384;20.272;2022-11-28T09:24:04;7.30;;;6.32;;
23838;SDS011;12100;44.384;20.272;2022-11-28T09:26:31;8.15;;;5.43;;
23838;SDS011;12100;44.384;20.272;2022-11-28T09:28:57;8.13;;;6.28;;
23838;SDS011;12100;44.384;20.272;2022-11-28T09:31:23;6.63;;;4.95;;
23838;SDS011;12100;44.384;20.272;2022-11-28T09:33:48;6.53;;;5.93;;
23838;SDS011;12100;44.384;20.272;2022-11-28T09:36:16;5.38;;;4.72;;
23838;SDS011;12100;44.384;20.272;2022-11-28T09:38:44;5.43;;;4.90;;
23838;SDS011;12100;44.384;20.272;2022-11-28T09:41:22;6.40;;;5.70;;
23838;SDS011;12100;44.384;20.272;2022-11-28T09:46:48;5.82;;;5.32;;
23838;SDS011;12100;44.384;20.272;2022-11-28T09:49:18;4.35;;;3.95;;
23838;SDS011;12100;44.384;20.272;2022-11-28T09:54:50;7.22;;;5.45;;
23838;SDS011;12100;44.384;20.272;2022-11-28T09:57:35;7.57;;;6.13;;
23838;SDS011;12100;44.384;20.272;2022-11-28T10:00:05;6.80;;;6.20;;
23838;SDS011;12100;44.384;20.272;2022-11-28T10:05:41;6.55;;;5.32;;
23838;SDS011;12100;44.384;20.272;2022-11-28T10:20:14;6.45;;;5.75;;
23838;SDS011;12100;44.384;20.272;2022-11-28T10:22:45;6.95;;;6.03;;
23838;SDS011;12100;44.384;20.272;2022-11-28T10:25:18;5.72;;;5.00;;
23838;SDS011;12100;44.384;20.272;2022-11-28T10:27:51;7.18;;;6.22;;
23838;SDS011;12100;44.384;20.272;2022-11-28T10:30:22;6.47;;;5.88;;
23838;SDS011;12100;44.384;20.272;2022-11-28T10:38:09;5.15;;;4.65;;
23838;SDS011;12100;44.384;20.272;2022-11-28T10:43:30;6.82;;;6.15;;
23838;SDS011;12100;44.384;20.272;2022-11-28T10:49:26;10.35;;;9.02;;
23838;SDS011;12100;44.384;20.272;2022-11-28T11:00:11;7.55;;;6.20;;
23838;SDS011;12100;44.384;20.272;2022-11-28T11:05:14;10.05;;;7.57;;
23838;SDS011;12100;44.384;20.272;2022-11-28T11:07:53;19.27;;;17.23;;
23838;SDS011;12100;44.384;20.272;2022-11-28T11:10:35;7.78;;;6.97;;
23838;SDS011;12100;44.384;20.272;2022-11-28T11:13:13;9.90;;;8.60;;
23838;SDS011;12100;44.384;20.272;2022-11-28T11:15:40;7.30;;;5.70;;
23838;SDS011;12100;44.384;20.272;2022-11-28T11:18:20;6.93;;;5.55;;
23838;SDS011;12100;44.384;20.272;2022-11-28T11:20:47;7.75;;;6.20;;
23838;SDS011;12100;44.384;20.272;2022-11-28T11:23:20;8.23;;;5.55;;
23838;SDS011;12100;44.384;20.272;2022-11-28T11:25:49;8.93;;;5.40;;
23838;SDS011;12100;44.384;20.272;2022-11-28T11:31:13;9.93;;;6.85;;
23838;SDS011;12100;44.384;20.272;2022-11-28T11:33:43;9.65;;;6.25;;
23838;SDS011;12100;44.384;20.272;2022-11-28T11:36:20;6.47;;;5.80;;
23838;SDS011;12100;44.384;20.272;2022-11-28T11:38:50;10.10;;;7.03;;
23838;SDS011;12100;44.384;20.272;2022-11-28T11:41:28;7.03;;;4.82;;
23838;SDS011;12100;44.384;20.272;2022-11-28T11:43:56;9.63;;;5.25;;
23838;SDS011;12100;44.384;20.272;2022-11-28T11:46:51;8.15;;;5.47;;
23838;SDS011;12100;44.384;20.272;2022-11-28T11:49:27;10.52;;;6.13;;
23838;SDS011;12100;44.384;20.272;2022-11-28T11:51:57;5.63;;;4.60;;
23838;SDS011;12100;44.384;20.272;2022-11-28T11:54:24;7.85;;;5.43;;
23838;SDS011;12100;44.384;20.272;2022-11-28T11:56:50;5.18;;;3.90;;
23838;SDS011;12100;44.384;20.272;2022-11-28T11:59:20;5.65;;;4.45;;
23838;SDS011;12100;44.384;20.272;2022-11-28T12:05:24;4.63;;;3.72;;
23838;SDS011;12100;44.384;20.272;2022-11-28T12:07:58;8.15;;;4.93;;
23838;SDS011;12100;44.384;20.272;2022-11-28T12:10:28;5.75;;;3.95;;
23838;SDS011;12100;44.384;20.272;2022-11-28T12:12:58;9.07;;;4.13;;
23838;SDS011;12100;44.384;20.272;2022-11-28T12:23:47;6.47;;;4.85;;
23838;SDS011;12100;44.384;20.272;2022-11-28T12:29:20;7.22;;;4.65;;
23838;SDS011;12100;44.384;20.272;2022-11-28T12:40:30;8.05;;;5.70;;
23838;SDS011;12100;44.384;20.272;2022-11-28T12:43:19;12.18;;;5.80;;
23838;SDS011;12100;44.384;20.272;2022-11-28T12:46:25;13.68;;;7.82;;
23838;SDS011;12100;44.384;20.272;2022-11-28T12:54:56;13.15;;;7.78;;
23838;SDS011;12100;44.384;20.272;2022-11-28T13:00:28;5.63;;;4.53;;
23838;SDS011;12100;44.384;20.272;2022-11-28T13:02:59;6.28;;;5.13;;
23838;SDS011;12100;44.384;20.272;2022-11-28T13:13:46;7.13;;;6.43;;
23838;SDS011;12100;44.384;20.272;2022-11-28T13:16:50;7.13;;;5.47;;
23838;SDS011;12100;44.384;20.272;2022-11-28T13:22:10;6.45;;;5.75;;
23838;SDS011;12100;44.384;20.272;2022-11-28T13:30:24;7.70;;;6.88;;
23838;SDS011;12100;44.384;20.272;2022-11-28T13:33:12;6.97;;;5.78;;
23838;SDS011;12100;44.384;20.272;2022-11-28T13:35:45;6.60;;;5.70;;
23838;SDS011;12100;44.384;20.272;2022-11-28T13:38:22;7.35;;;6.10;;
23838;SDS011;12100;44.384;20.272;2022-11-28T13:41:02;7.70;;;6.53;;
23838;SDS011;12100;44.384;20.272;2022-11-28T13:46:14;8.88;;;7.95;;
23838;SDS011;12100;44.384;20.272;2022-11-28T13:53:46;8.82;;;7.03;;
23838;SDS011;12100;44.384;20.272;2022-11-28T13:56:21;9.52;;;7.25;;
23838;SDS011;12100;44.384;20.272;2022-11-28T13:58:52;9.88;;;8.07;;
23838;SDS011;12100;44.384;20.272;2022-11-28T14:04:12;12.73;;;7.28;;
23838;SDS011;12100;44.384;20.272;2022-11-28T14:06:45;9.90;;;7.63;;
23838;SDS011;12100;44.384;20.272;2022-11-28T14:25:56;18.20;;;13.48;;
23838;SDS011;12100;44.384;20.272;2022-11-28T14:28:35;19.10;;;15.68;;
23838;SDS011;12100;44.384;20.272;2022-11-28T14:33:48;12.38;;;9.88;;
23838;SDS011;12100;44.384;20.272;2022-11-28T14:39:11;13.45;;;10.52;;
23838;SDS011;12100;44.384;20.272;2022-11-28T14:49:46;16.80;;;9.57;;
23838;SDS011;12100;44.384;20.272;2022-11-28T14:54:43;12.95;;;9.55;;
23838;SDS011;12100;44.384;20.272;2022-11-28T14:57:21;13.77;;;9.95;;
23838;SDS011;12100;44.384;20.272;2022-11-28T14:59:47;11.40;;;7.25;;
23838;SDS011;12100;44.384;20.272;2022-11-28T15:10:22;12.50;;;9.57;;
23838;SDS011;12100;44.384;20.272;2022-11-28T15:15:47;17.58;;;11.98;;
23838;SDS011;12100;44.384;20.272;2022-11-28T15:18:15;14.85;;;8.82;;
23838;SDS011;12100;44.384;20.272;2022-11-28T15:20:47;12.30;;;8.93;;
23838;SDS011;12100;44.384;20.272;2022-11-28T15:23:28;11.73;;;7.85;;
23838;SDS011;12100;44.384;20.272;2022-11-28T15:25:54;13.95;;;9.95;;
23838;SDS011;12100;44.384;20.272;2022-11-28T15:28:21;14.27;;;9.75;;
23838;SDS011;12100;44.384;20.272;2022-11-28T15:30:52;12.77;;;9.00;;
23838;SDS011;12100;44.384;20.272;2022-11-28T15:33:23;7.40;;;5.35;;
23838;SDS011;12100;44.384;20.272;2022-11-28T15:35:54;9.93;;;6.68;;
23838;SDS011;12100;44.384;20.272;2022-11-28T15:38:36;13.27;;;8.85;;
23838;SDS011;12100;44.384;20.272;2022-11-28T15:41:05;9.70;;;7.15;;
23838;SDS011;12100;44.384;20.272;2022-11-28T15:43:31;12.98;;;8.93;;
23838;SDS011;12100;44.384;20.272;2022-11-28T15:45:58;19.50;;;10.60;;
23838;SDS011;12100;44.384;20.272;2022-11-28T15:48:32;18.25;;;11.13;;
23838;SDS011;12100;44.384;20.272;2022-11-28T15:50:58;15.13;;;8.43;;
23838;SDS011;12100;44.384;20.272;2022-11-28T15:53:24;9.75;;;6.93;;
23838;SDS011;12100;44.384;20.272;2022-11-28T15:56:06;9.63;;;7.47;;
23838;SDS011;12100;44.384;20.272;2022-11-28T15:58:33;8.80;;;6.35;;
23838;SDS011;12100;44.384;20.272;2022-11-28T16:03:32;8.32;;;5.65;;
23838;SDS011;12100;44.384;20.272;2022-11-28T16:06:04;8.77;;;6.53;;
23838;SDS011;12100;44.384;20.272;2022-11-28T16:08:37;8.40;;;6.05;;
23838;SDS011;12100;44.384;20.272;2022-11-28T16:11:06;8.18;;;6.55;;
23838;SDS011;12100;44.384;20.272;2022-11-28T16:13:36;9.32;;;7.03;;
23838;SDS011;12100;44.384;20.272;2022-11-28T16:16:06;10.05;;;7.75;;
23838;SDS011;12100;44.384;20.272;2022-11-28T16:18:41;17.05;;;15.35;;
23838;SDS011;12100;44.384;20.272;2022-11-28T16:21:12;10.27;;;6.38;;
23838;SDS011;12100;44.384;20.272;2022-11-28T16:23:39;10.35;;;7.72;;
23838;SDS011;12100;44.384;20.272;2022-11-28T16:26:07;11.25;;;5.90;;
23838;SDS011;12100;44.384;20.272;2022-11-28T16:29:11;11.05;;;6.80;;
23838;SDS011;12100;44.384;20.272;2022-11-28T16:31:39;8.70;;;6.32;;
23838;SDS011;12100;44.384;20.272;2022-11-28T16:34:09;6.63;;;5.68;;
23838;SDS011;12100;44.384;20.272;2022-11-28T16:36:37;14.27;;;6.07;;
23838;SDS011;12100;44.384;20.272;2022-11-28T16:41:29;11.07;;;6.25;;
23838;SDS011;12100;44.384;20.272;2022-11-28T16:46:55;8.77;;;6.25;;
23838;SDS011;12100;44.384;20.272;2022-11-28T16:54:48;11.57;;;7.55;;
23838;SDS011;12100;44.384;20.272;2022-11-28T16:57:18;9.13;;;6.57;;
23838;SDS011;12100;44.384;20.272;2022-11-28T16:59:44;10.43;;;6.80;;
23838;SDS011;12100;44.384;20.272;2022-11-28T17:02:11;34.08;;;23.17;;
23838;SDS011;12100;44.384;20.272;2022-11-28T17:04:37;12.43;;;8.13;;
23838;SDS011;12100;44.384;20.272;2022-11-28T17:07:04;15.02;;;10.05;;
23838;SDS011;12100;44.384;20.272;2022-11-28T17:09:33;15.35;;;10.63;;
23838;SDS011;12100;44.384;20.272;2022-11-28T17:14:28;9.38;;;7.55;;
23838;SDS011;12100;44.384;20.272;2022-11-28T17:16:53;12.32;;;6.18;;
23838;SDS011;12100;44.384;20.272;2022-11-28T17:19:19;11.88;;;8.02;;
23838;SDS011;12100;44.384;20.272;2022-11-28T17:21:47;8.93;;;5.93;;
23838;SDS011;12100;44.384;20.272;2022-11-28T17:26:53;6.55;;;4.63;;
23838;SDS011;12100;44.384;20.272;2022-11-28T17:29:19;6.55;;;4.97;;
23838;SDS011;12100;44.384;20.272;2022-11-28T17:31:46;12.07;;;7.43;;
23838;SDS011;12100;44.384;20.272;2022-11-28T17:36:48;11.93;;;5.00;;
23838;SDS011;12100;44.384;20.272;2022-11-28T17:39:14;7.40;;;5.65;;
23838;SDS011;12100;44.384;20.272;2022-11-28T17:41:41;9.85;;;6.18;;
23838;SDS011;12100;44.384;20.272;2022-11-28T17:44:18;10.65;;;6.82;;
23838;SDS011;12100;44.384;20.272;2022-11-28T17:46:49;10.63;;;6.70;;
23838;SDS011;12100;44.384;20.272;2022-11-28T17:49:16;8.35;;;5.63;;
23838;SDS011;12100;44.384;20.272;2022-11-28T17:51:43;13.38;;;7.72;;
23838;SDS011;12100;44.384;20.272;2022-11-28T17:54:09;12.50;;;6.78;;
23838;SDS011;12100;44.384;20.272;2022-11-28T17:56:44;10.07;;;5.45;;
23838;SDS011;12100;44.384;20.272;2022-11-28T17:59:12;6.40;;;4.75;;
23838;SDS011;12100;44.384;20.272;2022-11-28T18:01:39;22.15;;;12.27;;
23838;SDS011;12100;44.384;20.272;2022-11-28T18:04:06;23.35;;;13.70;;
23838;SDS011;12100;44.384;20.272;2022-11-28T18:06:32;11.60;;;6.53;;
23838;SDS011;12100;44.384;20.272;2022-11-28T18:08:58;12.52;;;7.00;;
23838;SDS011;12100;44.384;20.272;2022-11-28T18:11:26;13.27;;;8.88;;
23838;SDS011;12100;44.384;20.272;2022-11-28T18:13:52;10.40;;;6.60;;
23838;SDS011;12100;44.384;20.272;2022-11-28T18:16:19;9.23;;;6.47;;
23838;SDS011;12100;44.384;20.272;2022-11-28T18:18:46;14.05;;;8.38;;
23838;SDS011;12100;44.384;20.272;2022-11-28T18:21:13;13.68;;;8.13;;
23838;SDS011;12100;44.384;20.272;2022-11-28T18:23:39;11.45;;;6.43;;